Time;durP1;ratioP1;P1;durP2;ratioP2;P2;SDS_P1;SDS_P2;PMS_P1;PMS_P2;Temp;Humidity;BMP_temperature;BMP_pressure;BME280_temperature;BME280_humidity;BME280_pressure;Samples;Min_cycle;Max_cycle;Signal;HPM_P1;HPM_P2
2022/08/02 00:00:15;;;;;;;5.45;3.90;;;;;;;17.40;76.37;98539.06;5040519;28;20036;-78
2022/08/02 00:02:42;;;;;;;4.53;3.85;;;;;;;17.37;76.62;98536.16;5038932;28;20025;-78
2022/08/02 00:05:08;;;;;;;4.20;3.47;;;;;;;17.32;76.92;98539.16;5036019;28;20126;-78
2022/08/02 00:07:33;;;;;;;3.97;3.60;;;;;;;17.29;76.49;98534.28;5034428;28;20489;-76
2022/08/02 00:09:59;;;;;;;4.15;3.70;;;;;;;17.26;76.84;98538.53;5030522;28;20018;-77
2022/08/02 00:12:24;;;;;;;4.15;3.35;;;;;;;17.23;76.84;98540.03;5032225;28;20044;-78
2022/08/02 00:14:50;;;;;;;4.88;3.72;;;;;;;17.23;78.25;98536.44;5030518;28;20029;-77
2022/08/02 00:17:16;;;;;;;6.38;3.80;;;;;;;17.18;77.22;98531.09;5030679;28;20037;-77
2022/08/02 00:19:43;;;;;;;4.80;3.22;;;;;;;17.17;78.05;98546.09;5025204;28;20050;-77
2022/08/02 00:22:08;;;;;;;4.38;3.70;;;;;;;17.10;77.99;98532.78;5029790;28;20418;-77
2022/08/02 00:24:34;;;;;;;4.30;3.90;;;;;;;17.07;77.79;98536.25;5029723;28;20036;-77
2022/08/02 00:27:02;;;;;;;6.70;3.80;;;;;;;17.05;78.47;98542.13;5029590;28;20028;-78
2022/08/02 00:29:28;;;;;;;3.50;3.20;;;;;;;17.04;79.60;98539.69;5029623;28;20052;-77
2022/08/02 00:31:55;;;;;;;3.75;3.40;;;;;;;17.03;79.70;98538.06;5029108;28;20508;-76
2022/08/02 00:34:21;;;;;;;4.90;3.80;;;;;;;17.00;78.88;98536.78;5029195;28;20036;-79
2022/08/02 00:36:46;;;;;;;4.68;3.67;;;;;;;16.98;80.14;98535.50;5031310;28;20073;-78
2022/08/02 00:39:11;;;;;;;3.95;3.25;;;;;;;16.94;79.04;98530.59;5031283;28;20033;-77
2022/08/02 00:41:48;;;;;;;4.97;3.58;;;;;;;16.93;79.41;98540.03;5029576;28;20032;-77
2022/08/02 00:44:18;;;;;;;4.07;3.35;;;;;;;16.92;79.69;98543.97;5029972;28;20375;-77
2022/08/02 00:46:44;;;;;;;4.45;3.45;;;;;;;16.95;79.13;98548.03;5029962;28;20492;-78
2022/08/02 00:49:11;;;;;;;3.78;3.40;;;;;;;16.94;79.44;98544.44;5029937;28;20056;-77
2022/08/02 00:51:37;;;;;;;4.18;3.72;;;;;;;16.95;79.34;98548.03;5030162;28;20513;-77
2022/08/02 00:54:02;;;;;;;3.80;3.40;;;;;;;16.94;79.74;98549.97;5029559;28;20041;-78
2022/08/02 00:56:28;;;;;;;4.78;4.07;;;;;;;16.94;80.15;98546.41;5029920;28;20432;-78
2022/08/02 00:58:53;;;;;;;5.18;4.10;;;;;;;16.94;80.86;98549.19;5029855;28;20025;-79
2022/08/02 01:01:19;;;;;;;6.15;4.10;;;;;;;16.94;79.98;98549.97;5027070;28;20025;-80
2022/08/02 01:03:44;;;;;;;5.75;4.22;;;;;;;16.95;79.95;98553.56;5031350;28;20481;-79
2022/08/02 01:06:10;;;;;;;4.47;3.55;;;;;;;16.93;80.67;98544.78;5030653;28;20393;-79
2022/08/02 01:08:37;;;;;;;6.03;4.30;;;;;;;16.93;79.82;98548.34;5034862;28;20021;-79
2022/08/02 01:11:03;;;;;;;5.72;4.18;;;;;;;16.96;80.13;98546.91;5031696;28;20116;-80
2022/08/02 01:13:28;;;;;;;5.68;4.50;;;;;;;16.96;80.33;98558.00;5031129;28;20481;-79
2022/08/02 01:16:01;;;;;;;5.80;4.05;;;;;;;16.96;79.98;98563.53;5032375;28;20029;-78
2022/08/02 01:18:33;;;;;;;6.78;4.18;;;;;;;16.95;79.54;98559.13;5031120;28;20108;-78
2022/08/02 01:21:31;;;;;;;4.68;3.90;;;;;;;16.95;79.74;98559.13;5034065;28;20046;-78
2022/08/02 01:24:32;;;;;;;5.43;3.80;;;;;;;16.95;79.73;98557.16;5030730;28;20029;-78
2022/08/02 01:27:19;;;;;;;5.55;3.90;;;;;;;16.95;79.18;98556.34;5037804;28;20037;-79
2022/08/02 01:29:50;;;;;;;4.22;3.50;;;;;;;16.94;79.50;98554.72;5042981;28;20048;-78
2022/08/02 01:32:22;;;;;;;5.20;4.00;;;;;;;16.94;79.95;98555.53;5041020;28;20025;-78
2022/08/02 01:35:00;;;;;;;4.75;3.70;;;;;;;16.94;79.41;98558.28;5034787;28;20119;-78
2022/08/02 01:37:32;;;;;;;5.30;3.58;;;;;;;16.99;79.43;98557.34;5033159;28;20517;-78
2022/08/02 01:40:03;;;;;;;3.80;3.45;;;;;;;17.01;79.32;98559.75;5032927;28;20029;-78
2022/08/02 01:42:30;;;;;;;3.75;3.45;;;;;;;17.03;79.36;98557.47;5034770;28;20073;-78
2022/08/02 01:44:56;;;;;;;5.65;3.40;;;;;;;17.03;79.39;98565.75;5033118;28;20026;-79
2022/08/02 01:47:27;;;;;;;3.90;3.50;;;;;;;17.02;79.27;98567.75;5040911;28;20053;-78
2022/08/02 01:49:56;;;;;;;4.55;3.47;;;;;;;16.99;79.93;98568.41;5042331;28;20038;-79
2022/08/02 01:52:25;;;;;;;5.10;2.90;;;;;;;17.00;80.09;98561.72;5036712;28;20021;-78
2022/08/02 01:55:07;;;;;;;4.03;3.50;;;;;;;16.95;79.46;98568.22;5032464;28;20621;-79
2022/08/02 01:57:39;;;;;;;3.95;3.53;;;;;;;16.91;79.74;98566.47;5035305;28;20539;-79
2022/08/02 02:00:07;;;;;;;5.28;3.55;;;;;;;16.87;79.85;98558.03;5031081;28;20029;-78
2022/08/02 02:02:36;;;;;;;4.30;3.75;;;;;;;16.84;79.28;98563.41;5033784;28;20108;-78
2022/08/02 02:05:04;;;;;;;6.00;4.05;;;;;;;16.83;80.16;98554.31;5032485;28;20061;-78
2022/08/02 02:07:32;;;;;;;6.75;4.50;;;;;;;16.81;79.91;98545.53;5035089;28;20029;-78
2022/08/02 02:09:59;;;;;;;6.47;4.30;;;;;;;16.78;79.57;98554.50;5031166;28;20037;-78
2022/08/02 02:12:27;;;;;;;4.40;3.88;;;;;;;16.77;80.12;98563.97;5032218;28;20029;-79
2022/08/02 02:14:54;;;;;;;5.60;4.25;;;;;;;16.77;80.22;98564.75;5032480;28;20037;-78
2022/08/02 02:17:21;;;;;;;6.47;4.75;;;;;;;16.76;79.67;98565.91;5032496;28;20021;-78
2022/08/02 02:19:47;;;;;;;5.55;4.30;;;;;;;16.78;79.93;98565.59;5032115;28;20119;-77
2022/08/02 02:22:13;;;;;;;5.40;4.70;;;;;;;16.77;80.06;98561.97;5031444;28;20490;-78
2022/08/02 02:24:38;;;;;;;6.85;4.68;;;;;;;16.76;79.42;98568.66;5031024;28;20030;-78
2022/08/02 02:27:06;;;;;;;6.07;4.68;;;;;;;16.77;79.82;98569.50;5032207;28;20350;-77
2022/08/02 02:29:34;;;;;;;6.85;4.90;;;;;;;16.77;79.66;98567.53;5032409;28;20040;-78
2022/08/02 02:32:00;;;;;;;5.22;4.28;;;;;;;16.75;80.08;98561.50;5031606;28;20021;-79
2022/08/02 02:34:34;;;;;;;5.78;4.63;;;;;;;16.75;79.83;98566.25;5032161;28;20025;-79
2022/08/02 02:37:03;;;;;;;5.80;4.55;;;;;;;16.76;79.64;98568.66;5031966;28;20439;-78
2022/08/02 02:39:31;;;;;;;6.00;4.25;;;;;;;16.78;79.66;98573.88;5031713;28;20033;-78
2022/08/02 02:42:02;;;;;;;8.15;4.68;;;;;;;16.79;79.68;98576.31;5029960;28;20037;-78
2022/08/02 02:44:29;;;;;;;6.30;4.43;;;;;;;16.80;79.89;98579.91;5031788;28;20063;-78
2022/08/02 02:46:57;;;;;;;7.45;4.10;;;;;;;16.84;79.55;98585.56;5031991;28;20075;-78
2022/08/02 02:49:23;;;;;;;4.22;3.42;;;;;;;16.88;80.77;98570.75;5031303;28;20029;-78
2022/08/02 02:51:51;;;;;;;5.63;3.83;;;;;;;16.93;80.05;98578.03;5031165;28;20025;-79
2022/08/02 02:54:17;;;;;;;6.28;3.92;;;;;;;16.95;79.90;98562.69;5032878;28;20386;-78
2022/08/02 02:56:44;;;;;;;5.05;3.58;;;;;;;16.99;79.99;98570.34;5031673;28;20025;-79
2022/08/02 02:59:12;;;;;;;4.53;3.60;;;;;;;17.02;80.21;98572.44;5031368;28;20088;-79
2022/08/02 03:01:38;;;;;;;6.00;4.00;;;;;;;17.03;80.01;98576.84;5031166;28;20072;-78
2022/08/02 03:04:06;;;;;;;4.03;3.53;;;;;;;17.05;79.74;98578.16;5031236;28;20545;-78
2022/08/02 03:06:32;;;;;;;4.50;3.67;;;;;;;17.09;80.95;98578.28;5027119;28;20068;-79
2022/08/02 03:08:59;;;;;;;4.28;3.70;;;;;;;17.09;80.76;98569.97;5030254;28;20021;-78
2022/08/02 03:11:28;;;;;;;5.35;3.60;;;;;;;17.07;80.48;98569.50;5031694;28;20022;-78
2022/08/02 03:13:54;;;;;;;;;;;;;;;17.08;80.53;98565.56;5035096;28;20017;-78
2022/08/02 03:16:20;;;;;;;5.05;3.83;;;;;;;17.07;80.63;98567.53;5032251;28;19956;-78
2022/08/02 03:18:45;;;;;;;3.70;3.40;;;;;;;17.07;80.45;98564.78;5032184;28;20053;-78
2022/08/02 03:21:12;;;;;;;4.28;3.88;;;;;;;17.11;80.17;98567.66;5028115;28;20041;-78
2022/08/02 03:23:43;;;;;;;4.20;3.60;;;;;;;17.17;80.09;98565.50;5030783;28;20033;-78
2022/08/02 03:26:08;;;;;;;4.95;3.65;;;;;;;17.19;79.79;98568.75;5032413;28;20052;-77
2022/08/02 03:28:34;;;;;;;3.85;3.17;;;;;;;17.20;79.89;98578.69;5031192;28;20053;-78
2022/08/02 03:31:00;;;;;;;5.88;3.60;;;;;;;17.22;80.71;98577.22;5030113;28;20386;-78
2022/08/02 03:33:27;;;;;;;4.78;3.38;;;;;;;17.21;79.83;98574.75;5031843;28;20411;-77
2022/08/02 03:35:55;;;;;;;4.35;3.85;;;;;;;17.21;79.86;98575.59;5030835;28;20432;-78
2022/08/02 03:38:22;;;;;;;6.60;3.60;;;;;;;17.23;80.37;98589.91;5031897;28;20029;-78
2022/08/02 03:40:48;;;;;;;4.32;3.90;;;;;;;17.24;79.68;98586.00;5031348;28;20068;-78
2022/08/02 03:43:14;;;;;;;4.25;3.85;;;;;;;17.29;79.55;98587.75;5031300;28;20057;-78
2022/08/02 03:45:46;;;;;;;4.40;4.00;;;;;;;17.32;79.52;98592.63;5030294;28;20099;-78
2022/08/02 03:48:14;;;;;;;3.90;3.47;;;;;;;17.38;79.88;98604.31;5030190;28;20037;-77
2022/08/02 03:50:41;;;;;;;4.07;3.67;;;;;;;17.41;79.54;98603.63;5031019;28;20036;-78
2022/08/02 03:53:07;;;;;;;6.47;3.38;;;;;;;17.45;79.34;98609.31;5030324;28;20120;-77
2022/08/02 03:55:34;;;;;;;7.55;3.80;;;;;;;17.46;79.49;98611.75;5031765;28;20026;-78
2022/08/02 03:58:00;;;;;;;4.78;3.78;;;;;;;17.46;79.59;98608.19;5031683;28;20425;-79
2022/08/02 04:00:25;;;;;;;5.60;3.78;;;;;;;17.43;79.23;98604.09;5031114;28;20033;-79
2022/08/02 04:02:51;;;;;;;5.03;3.72;;;;;;;17.47;79.13;98607.81;5030845;28;20550;-79
2022/08/02 04:05:17;;;;;;;5.93;3.95;;;;;;;17.49;79.54;98615.81;5031245;28;20029;-78
2022/08/02 04:07:43;;;;;;;5.25;4.35;;;;;;;17.49;79.25;98613.06;5031095;28;20113;-78
2022/08/02 04:10:09;;;;;;;5.07;3.80;;;;;;;17.49;79.39;98624.94;5031225;28;20029;-78
2022/08/02 04:12:35;;;;;;;6.25;3.95;;;;;;;17.47;79.34;98615.34;5030895;28;20032;-78
2022/08/02 04:15:04;;;;;;;5.60;3.85;;;;;;;17.49;79.48;98622.16;5029981;28;21198;-78
2022/08/02 04:17:32;;;;;;;5.57;4.07;;;;;;;17.49;79.79;98627.72;5028677;28;20057;-79
2022/08/02 04:20:20;;;;;;;6.07;4.07;;;;;;;17.48;79.34;98637.19;5033355;28;20057;-79
2022/08/02 04:22:55;;;;;;;4.80;4.25;;;;;;;17.53;79.03;98641.69;5031402;28;20056;-77
2022/08/02 04:25:23;;;;;;;6.03;4.25;;;;;;;17.60;79.70;98635.63;5027867;28;20033;-76
2022/08/02 04:27:49;;;;;;;6.65;4.05;;;;;;;17.61;79.55;98643.59;5029715;28;20378;-77
2022/08/02 04:30:16;;;;;;;4.30;3.55;;;;;;;17.63;79.36;98641.28;5035117;28;20112;-77
2022/08/02 04:32:43;;;;;;;5.22;4.13;;;;;;;17.64;79.33;98644.91;5029086;28;20440;-77
2022/08/02 04:35:09;;;;;;;6.05;4.15;;;;;;;17.69;79.25;98645.50;5030675;28;20076;-76
2022/08/02 04:37:36;;;;;;;4.32;3.80;;;;;;;17.71;79.22;98645.97;5029115;28;20033;-77
2022/08/02 04:40:03;;;;;;;6.90;3.95;;;;;;;17.72;78.90;98649.56;5030937;28;20037;-76
2022/08/02 04:42:28;;;;;;;4.28;3.88;;;;;;;17.75;79.24;98645.28;5032712;28;20529;-76
2022/08/02 04:44:54;;;;;;;5.40;4.10;;;;;;;17.73;79.38;98642.84;5030484;28;20029;-76
2022/08/02 04:47:20;;;;;;;5.68;3.95;;;;;;;17.70;79.27;98646.31;5031267;28;20486;-77
2022/08/02 04:49:46;;;;;;;4.35;3.80;;;;;;;17.70;79.29;98646.31;5030466;28;20473;-76
2022/08/02 04:52:12;;;;;;;4.13;3.72;;;;;;;17.66;79.34;98660.03;5029822;28;20068;-76
2022/08/02 04:54:37;;;;;;;5.97;4.03;;;;;;;17.66;79.39;98659.22;5030737;28;20033;-76
2022/08/02 04:57:53;;;;;;;4.50;3.95;;;;;;;17.67;79.44;98658.09;5030480;28;20033;-77
2022/08/02 04:59:49;;;;;;;4.93;3.75;;;;;;;17.71;79.21;98659.03;5030290;28;20061;-76
2022/08/02 05:02:14;;;;;;;4.80;3.83;;;;;;;17.69;79.36;98664.91;5030348;28;20120;-77
2022/08/02 05:04:39;;;;;;;4.78;3.63;;;;;;;17.67;79.12;98663.63;5030748;28;20033;-77
2022/08/02 05:07:05;;;;;;;5.22;4.07;;;;;;;17.65;79.19;98668.72;5030356;28;20425;-76
2022/08/02 05:09:30;;;;;;;4.95;3.50;;;;;;;17.70;79.71;98671.28;5030376;28;20458;-76
2022/08/02 05:11:56;;;;;;;7.32;3.80;;;;;;;17.69;79.19;98664.91;5032560;28;20084;-77
2022/08/02 05:14:22;;;;;;;4.88;4.05;;;;;;;17.75;79.61;98665.50;5030298;28;20025;-76
2022/08/02 05:16:47;;;;;;;4.97;3.92;;;;;;;17.77;79.35;98663.19;5030401;28;20029;-76
2022/08/02 05:19:14;;;;;;;6.35;4.38;;;;;;;17.75;79.47;98664.69;5030700;28;20053;-74
2022/08/02 05:21:39;;;;;;;5.60;4.40;;;;;;;17.73;79.50;98667.78;5030845;28;20056;-73
2022/08/02 05:24:05;;;;;;;6.47;4.60;;;;;;;17.70;79.35;98671.28;5029494;28;20029;-74
2022/08/02 05:26:31;;;;;;;5.03;3.90;;;;;;;17.71;79.78;98676.47;5029494;28;20449;-73
2022/08/02 05:28:56;;;;;;;5.10;4.20;;;;;;;17.72;80.12;98685.63;5029951;28;20060;-74
2022/08/02 05:31:21;;;;;;;5.38;4.55;;;;;;;17.73;80.07;98678.09;5029037;28;20029;-74
2022/08/02 05:33:47;;;;;;;7.05;4.70;;;;;;;17.75;80.10;98671.03;5030920;28;20025;-74
2022/08/02 05:36:12;;;;;;;5.38;3.97;;;;;;;17.83;80.14;98684.03;5027405;28;20026;-73
2022/08/02 05:38:38;;;;;;;7.88;4.45;;;;;;;17.89;80.19;98690.22;5028231;28;20482;-73
2022/08/02 05:41:06;;;;;;;4.47;4.07;;;;;;;17.96;80.17;98684.09;5032522;28;20095;-73
2022/08/02 05:43:31;;;;;;;5.22;4.53;;;;;;;18.02;79.83;98682.78;5031689;28;20033;-73
2022/08/02 05:45:57;;;;;;;5.38;4.55;;;;;;;18.07;80.00;98693.66;5036580;28;20025;-73
2022/08/02 05:48:22;;;;;;;6.53;5.05;;;;;;;18.13;79.88;98695.09;5038894;28;20075;-71
2022/08/02 05:50:54;;;;;;;5.63;4.80;;;;;;;18.23;79.63;98698.56;5037468;28;20481;-73
2022/08/02 05:53:27;;;;;;;7.57;5.00;;;;;;;18.34;79.37;98701.75;5033714;28;20017;-73
2022/08/02 05:56:08;;;;;;;6.85;4.70;;;;;;;18.45;79.26;98697.38;5034432;28;20079;-74
2022/08/02 05:58:44;;;;;;;6.05;4.40;;;;;;;18.57;79.16;98704.91;5033624;28;20024;-74
2022/08/02 06:01:16;;;;;;;9.30;4.45;;;;;;;18.72;79.03;98707.03;5026673;28;20042;-74
2022/08/02 06:03:50;;;;;;;5.68;4.25;;;;;;;18.90;78.74;98704.84;5031397;28;20029;-76
2022/08/02 06:06:22;;;;;;;40.08;25.17;;;;;;;19.03;78.66;98702.91;5031655;28;20413;-78
2022/08/02 06:08:54;;;;;;;12.23;8.60;;;;;;;19.17;78.16;98710.09;5032856;28;20385;-77
2022/08/02 06:11:32;;;;;;;7.32;4.70;;;;;;;19.20;78.00;98703.84;5031932;28;20592;-75
2022/08/02 06:13:57;;;;;;;5.05;3.80;;;;;;;19.27;77.77;98703.25;5031053;28;20044;-75
2022/08/02 06:16:26;;;;;;;6.63;4.13;;;;;;;19.30;77.74;98717.28;5025779;28;20025;-74
2022/08/02 06:18:52;;;;;;;6.28;5.10;;;;;;;19.34;77.55;98715.44;5026786;28;20104;-75
2022/08/02 06:21:20;;;;;;;4.78;3.90;;;;;;;19.38;77.20;98709.16;5032096;28;20036;-74
2022/08/02 06:23:46;;;;;;;4.60;4.20;;;;;;;19.38;76.84;98729.44;5024463;28;20405;-74
2022/08/02 06:26:12;;;;;;;5.22;3.97;;;;;;;19.38;76.91;98723.06;5030883;28;20035;-74
2022/08/02 06:28:38;;;;;;;6.63;4.32;;;;;;;19.47;77.00;98727.34;5031318;28;20022;-73
2022/08/02 06:31:08;;;;;;;5.07;4.05;;;;;;;19.56;76.79;98727.22;5030908;28;20033;-72
2022/08/02 06:33:34;;;;;;;6.50;4.55;;;;;;;19.64;76.79;98733.81;5030107;28;20448;-72
2022/08/02 06:36:09;;;;;;;7.78;4.55;;;;;;;19.75;76.82;98736.94;5032899;28;20029;-73
2022/08/02 06:39:02;;;;;;;6.30;4.07;;;;;;;19.89;76.35;98733.81;5029496;28;20036;-75
2022/08/02 06:41:30;;;;;;;5.85;3.70;;;;;;;20.00;75.92;98740.47;5028624;28;20049;-73
2022/08/02 06:44:01;;;;;;;5.10;4.60;;;;;;;20.09;75.86;98737.56;5029425;28;20029;-75
2022/08/02 06:46:27;;;;;;;5.63;4.38;;;;;;;20.13;75.82;98734.88;5030712;28;20030;-72
2022/08/02 06:48:53;;;;;;;4.35;3.88;;;;;;;20.11;75.43;98738.03;5029524;28;20040;-72
2022/08/02 06:51:19;;;;;;;5.50;4.80;;;;;;;20.11;75.11;98735.25;5030620;28;20037;-74
2022/08/02 06:53:44;;;;;;;7.07;5.40;;;;;;;20.13;74.95;98741.28;5029688;28;20026;-72
2022/08/02 06:56:10;;;;;;;6.88;4.60;;;;;;;20.17;75.18;98741.34;5036722;28;20028;-71
2022/08/02 06:58:36;;;;;;;5.32;4.68;;;;;;;20.27;74.65;98732.50;5031442;28;20040;-72
2022/08/02 07:01:05;;;;;;;4.95;4.05;;;;;;;20.40;74.75;98738.00;5032428;28;20406;-71
2022/08/02 07:03:36;;;;;;;3.83;3.42;;;;;;;20.53;74.42;98740.41;5030261;28;20385;-71
2022/08/02 07:06:01;;;;;;;5.32;4.85;;;;;;;20.60;73.70;98742.56;5031214;28;20470;-71
2022/08/02 07:08:31;;;;;;;6.85;4.65;;;;;;;20.72;73.96;98738.88;5028192;28;20028;-72
2022/08/02 07:11:00;;;;;;;7.43;5.07;;;;;;;20.78;73.41;98733.91;5030371;28;20112;-72
2022/08/02 07:13:27;;;;;;;5.85;5.35;;;;;;;20.81;73.26;98733.16;5029747;28;20017;-72
2022/08/02 07:15:52;;;;;;;5.93;5.40;;;;;;;20.76;73.12;98736.22;5031990;28;20035;-71
2022/08/02 07:18:18;;;;;;;5.72;5.22;;;;;;;20.85;72.76;98745.22;5030928;28;20021;-71
2022/08/02 07:20:44;;;;;;;5.90;5.30;;;;;;;20.93;72.56;98737.88;5031763;28;20865;-71
2022/08/02 07:23:09;;;;;;;5.40;4.90;;;;;;;20.95;72.57;98744.69;5030422;28;20029;-72
2022/08/02 07:25:35;;;;;;;6.30;5.32;;;;;;;21.02;72.86;98749.63;5032450;28;20033;-71
2022/08/02 07:28:00;;;;;;;5.97;4.45;;;;;;;21.14;72.66;98750.72;5033104;28;20027;-72
2022/08/02 07:30:27;;;;;;;4.95;4.55;;;;;;;21.20;72.52;98747.28;5030200;28;20049;-72
2022/08/02 07:32:53;;;;;;;6.75;4.38;;;;;;;21.26;72.43;98748.63;5028809;28;20108;-71
2022/08/02 07:35:20;;;;;;;6.50;5.93;;;;;;;21.34;71.16;98755.22;5028905;28;20112;-67
2022/08/02 07:37:45;;;;;;;8.35;6.40;;;;;;;21.30;71.58;98756.28;5032045;28;20025;-67
2022/08/02 07:40:12;;;;;;;6.93;6.07;;;;;;;21.32;71.53;98751.16;5029020;28;20543;-68
2022/08/02 07:42:37;;;;;;;13.13;11.85;;;;;;;21.33;71.11;98750.81;5031295;28;20496;-68
2022/08/02 07:45:03;;;;;;;14.27;12.88;;;;;;;21.43;71.34;98757.81;5030062;28;20036;-70
2022/08/02 07:47:29;;;;;;;17.63;15.80;;;;;;;21.55;71.01;98760.50;5029775;28;20419;-69
2022/08/02 07:49:54;;;;;;;12.77;11.60;;;;;;;21.61;70.33;98768.56;5030006;28;20025;-74
2022/08/02 07:52:19;;;;;;;10.23;9.32;;;;;;;21.59;70.00;98771.72;5024379;28;20137;-71
2022/08/02 07:54:45;;;;;;;9.93;9.02;;;;;;;21.59;69.86;98765.34;5028387;28;20042;-72
2022/08/02 07:57:11;;;;;;;12.70;11.40;;;;;;;21.68;69.90;98760.38;5025426;28;20448;-70
2022/08/02 07:59:37;;;;;;;14.05;12.60;;;;;;;21.70;69.82;98764.47;5032416;28;20052;-79
2022/08/02 08:02:03;;;;;;;14.10;12.68;;;;;;;21.71;68.38;98766.06;5030849;28;20648;-73
2022/08/02 08:04:29;;;;;;;16.05;14.45;;;;;;;21.67;69.00;98758.78;5030368;28;20029;-73
2022/08/02 08:06:55;;;;;;;15.55;13.93;;;;;;;21.70;69.09;98766.41;5025639;28;20025;-74
2022/08/02 08:09:20;;;;;;;17.25;14.32;;;;;;;21.69;69.00;98765.63;5028293;28;20026;-72
2022/08/02 08:11:46;;;;;;;15.25;13.80;;;;;;;21.73;69.13;98767.69;5025620;28;20031;-72
2022/08/02 08:14:11;;;;;;;16.13;13.55;;;;;;;21.76;68.65;98767.75;5028164;28;20033;-71
2022/08/02 08:16:37;;;;;;;14.07;12.75;;;;;;;21.77;67.87;98774.97;5028207;28;20033;-72
2022/08/02 08:19:03;;;;;;;14.40;13.02;;;;;;;21.80;68.50;98776.22;5028266;28;20107;-74
2022/08/02 08:21:28;;;;;;;15.10;13.63;;;;;;;21.85;68.55;98771.16;5026064;28;20994;-75
2022/08/02 08:23:55;;;;;;;16.08;14.57;;;;;;;21.99;67.99;98775.47;5009381;28;20044;-75
2022/08/02 08:26:20;;;;;;;16.73;15.02;;;;;;;22.07;67.86;98770.81;5027216;28;20079;-75
2022/08/02 08:28:45;;;;;;;13.43;11.93;;;;;;;22.23;67.62;98771.56;5025300;28;20490;-74
2022/08/02 08:31:11;;;;;;;12.25;10.90;;;;;;;22.32;65.69;98762.97;5029394;28;20483;-75
2022/08/02 08:33:36;;;;;;;10.90;9.70;;;;;;;22.35;66.16;98783.75;5027728;28;20394;-75
2022/08/02 08:36:03;;;;;;;11.18;10.02;;;;;;;22.48;65.56;98779.69;5026543;28;20040;-75
2022/08/02 08:38:28;;;;;;;10.68;9.65;;;;;;;22.57;66.11;98769.09;5026621;28;20044;-74
2022/08/02 08:40:54;;;;;;;13.90;12.57;;;;;;;22.69;64.75;98770.09;5027655;28;20025;-74
2022/08/02 08:43:19;;;;;;;15.13;13.27;;;;;;;22.78;65.43;98773.47;5026848;28;20033;-74
2022/08/02 08:45:46;;;;;;;15.75;12.65;;;;;;;22.88;65.03;98774.81;5025877;28;20021;-80
2022/08/02 08:48:14;;;;;;;14.82;12.80;;;;;;;23.00;64.39;98771.84;5027183;28;20504;-72
2022/08/02 08:50:48;;;;;;;12.70;11.48;;;;;;;23.10;64.99;98770.41;5026629;28;20532;-73
2022/08/02 08:53:14;;;;;;;13.18;10.77;;;;;;;23.16;63.89;98777.31;5024318;28;20019;-72
2022/08/02 08:55:40;;;;;;;9.40;8.50;;;;;;;23.15;62.43;98775.72;5026549;28;20087;-74
2022/08/02 08:58:06;;;;;;;10.02;8.98;;;;;;;23.13;63.02;98771.69;5027133;28;20086;-73
2022/08/02 09:00:34;;;;;;;10.35;8.93;;;;;;;23.13;61.79;98775.28;5026226;28;20490;-73
2022/08/02 09:03:07;;;;;;;10.55;8.45;;;;;;;23.10;62.03;98781.63;5026395;28;20135;-74
2022/08/02 09:05:37;;;;;;;9.38;8.48;;;;;;;23.10;62.04;98778.03;5024302;28;20520;-72
2022/08/02 09:08:04;;;;;;;9.55;8.65;;;;;;;23.07;61.80;98775.97;5023431;28;20506;-75
2022/08/02 09:10:41;;;;;;;12.00;8.90;;;;;;;23.07;61.88;98779.56;5024505;28;20049;-75
2022/08/02 09:13:14;;;;;;;11.25;9.27;;;;;;;23.02;61.61;98782.69;5025364;28;20060;-74
2022/08/02 09:15:44;;;;;;;14.48;9.80;;;;;;;23.06;62.18;98783.53;5026133;28;20121;-75
2022/08/02 09:18:11;;;;;;;9.57;8.68;;;;;;;23.22;61.70;98786.25;5026351;28;20140;-75
2022/08/02 09:20:56;;;;;;;9.50;7.78;;;;;;;23.36;61.90;98788.50;5023819;28;20546;-76
2022/08/02 09:23:22;;;;;;;8.95;8.15;;;;;;;23.47;61.25;98783.84;5029915;28;20053;-73
2022/08/02 09:26:06;;;;;;;10.00;9.00;;;;;;;23.58;61.45;98786.03;5031720;28;20100;-75
2022/08/02 09:28:34;;;;;;;9.07;7.15;;;;;;;23.69;60.30;98789.78;5029833;28;20064;-76
2022/08/02 09:31:12;;;;;;;9.13;8.23;;;;;;;23.72;59.68;98791.03;5033706;28;20382;-74
2022/08/02 09:33:40;;;;;;;8.10;7.30;;;;;;;23.66;60.08;98790.56;5030997;28;20041;-74
2022/08/02 09:36:07;;;;;;;7.07;6.47;;;;;;;23.66;59.52;98793.34;5030801;28;20047;-75
2022/08/02 09:38:34;;;;;;;8.07;7.28;;;;;;;23.64;60.11;98790.13;5032561;28;20375;-77
2022/08/02 09:41:00;;;;;;;7.50;6.80;;;;;;;23.70;59.86;98791.41;5034876;28;20037;-77
2022/08/02 09:43:40;;;;;;;8.63;7.50;;;;;;;23.77;59.65;98785.94;5032066;28;20141;-76
2022/08/02 09:46:25;;;;;;;10.20;7.53;;;;;;;23.77;59.71;98797.13;5033851;28;20032;-75
2022/08/02 09:48:54;;;;;;;9.07;8.02;;;;;;;23.77;60.19;98794.31;5031179;28;20033;-76
2022/08/02 09:51:27;;;;;;;8.13;6.70;;;;;;;23.78;60.05;98789.53;5032195;28;20545;-75
2022/08/02 09:53:55;;;;;;;7.47;6.70;;;;;;;23.77;60.06;98788.72;5031810;28;20524;-78
2022/08/02 09:56:22;;;;;;;8.57;6.75;;;;;;;23.75;58.08;98785.50;5032699;28;20100;-75
2022/08/02 09:58:48;;;;;;;8.18;6.53;;;;;;;23.74;59.00;98780.25;5033210;28;20037;-74
2022/08/02 10:01:14;;;;;;;7.57;5.53;;;;;;;23.82;58.46;98786.78;5032473;28;20029;-73
2022/08/02 10:03:55;;;;;;;8.23;6.53;;;;;;;23.89;59.62;98776.50;5030547;28;20040;-75
2022/08/02 10:06:20;;;;;;;6.57;5.80;;;;;;;24.03;58.42;98772.31;5029410;28;20055;-77
2022/08/02 10:08:46;;;;;;;5.43;4.80;;;;;;;24.13;57.37;98766.03;5030758;28;20084;-77
2022/08/02 10:11:13;;;;;;;5.55;5.05;;;;;;;24.17;57.23;98761.28;5034179;28;20029;-73
2022/08/02 10:13:38;;;;;;;7.47;6.50;;;;;;;24.20;57.15;98762.53;5030273;28;20025;-73
2022/08/02 10:16:05;;;;;;;8.02;5.22;;;;;;;24.17;57.32;98763.28;5032580;28;20052;-74
2022/08/02 10:18:31;;;;;;;7.85;5.28;;;;;;;24.16;57.10;98768.06;5028858;28;20062;-70
2022/08/02 10:21:00;;;;;;;6.40;5.28;;;;;;;24.15;57.89;98765.66;5029271;28;20049;-70
2022/08/02 10:23:31;;;;;;;11.50;7.90;;;;;;;24.24;57.54;98763.38;5028177;28;20029;-70
2022/08/02 10:25:59;;;;;;;6.18;5.68;;;;;;;24.37;55.86;98767.53;5027593;28;20029;-68
2022/08/02 10:28:32;;;;;;;5.18;4.68;;;;;;;24.50;57.27;98770.06;5030259;28;20044;-68
2022/08/02 10:31:01;;;;;;;5.03;4.50;;;;;;;24.53;56.14;98766.50;5030334;28;20187;-72
2022/08/02 10:33:29;;;;;;;5.45;4.88;;;;;;;24.57;56.45;98769.34;5029549;28;20542;-74
2022/08/02 10:35:57;;;;;;;6.38;5.40;;;;;;;24.59;56.04;98770.59;5028595;28;20025;-71
2022/08/02 10:38:23;;;;;;;8.93;5.90;;;;;;;24.55;56.48;98777.31;5029926;28;20036;-70
2022/08/02 10:40:54;;;;;;;5.40;4.35;;;;;;;24.51;56.76;98768.88;5033671;28;20112;-74
2022/08/02 10:43:31;;;;;;;5.70;3.88;;;;;;;24.43;56.47;98768.00;5030103;28;20075;-73
2022/08/02 10:46:34;;;;;;;4.57;4.18;;;;;;;24.31;55.76;98768.25;5027177;28;20029;-73
2022/08/02 10:49:03;;;;;;;7.97;4.15;;;;;;;24.40;56.90;98765.97;5030838;28;20033;-72
2022/08/02 10:51:53;;;;;;;4.40;4.05;;;;;;;24.61;57.24;98761.78;5027630;28;20035;-71
2022/08/02 10:54:24;;;;;;;3.90;3.60;;;;;;;24.65;56.35;98757.84;5031691;28;20038;-71
2022/08/02 10:56:53;;;;;;;7.25;3.83;;;;;;;24.69;55.93;98755.06;5028731;28;20390;-71
2022/08/02 10:59:23;;;;;;;4.00;3.60;;;;;;;24.76;55.67;98754.34;5032282;28;20036;-71
2022/08/02 11:01:48;;;;;;;5.35;3.70;;;;;;;24.85;55.39;98759.66;5031713;28;20482;-70
2022/08/02 11:04:14;;;;;;;5.25;3.85;;;;;;;24.94;54.33;98751.72;5030524;28;20034;-70
2022/08/02 11:07:30;;;;;;;5.63;3.70;;;;;;;25.06;53.68;98747.84;5027430;28;20017;-70
2022/08/02 11:09:55;;;;;;;4.80;4.25;;;;;;;25.33;53.88;98744.84;5029399;28;20104;-72
2022/08/02 11:12:21;;;;;;;5.40;4.38;;;;;;;25.49;54.26;98753.81;5027684;28;20116;-70
2022/08/02 11:15:02;;;;;;;5.57;4.28;;;;;;;25.54;52.99;98750.63;5029488;28;20104;-70
2022/08/02 11:17:52;;;;;;;7.63;3.92;;;;;;;25.47;53.72;98755.41;5028427;28;20052;-71
2022/08/02 11:20:17;;;;;;;;;;;;;;;25.41;52.56;98752.91;5026840;28;20037;-70
2022/08/02 11:22:44;;;;;;;5.20;3.42;;;;;;;25.32;53.20;98751.66;5027762;28;19935;-70
2022/08/02 11:25:22;;;;;;;5.20;3.67;;;;;;;25.41;52.86;98755.72;5027959;28;20761;-71
2022/08/02 11:27:53;;;;;;;7.68;3.53;;;;;;;25.59;52.96;98757.91;5031238;28;20079;-70
2022/08/02 11:30:19;;;;;;;3.22;2.88;;;;;;;25.69;50.46;98751.53;5025917;28;20025;-71
2022/08/02 11:32:45;;;;;;;4.65;3.65;;;;;;;25.64;51.59;98753.91;5027246;28;20176;-71
2022/08/02 11:35:10;;;;;;;4.22;3.40;;;;;;;25.56;51.74;98758.69;5028000;28;20528;-71
2022/08/02 11:37:42;;;;;;;5.07;3.50;;;;;;;25.54;50.73;98761.06;5027962;28;20057;-71